createdAt,value
2017-11-03T00:00:39.273Z,151.55
2017-11-03T00:03:06.813Z,131.30
2017-11-03T00:05:34.389Z,126.70
2017-11-03T00:08:02.321Z,133.50
2017-11-03T00:10:29.855Z,152.57
2017-11-03T00:12:57.414Z,123.07
2017-11-03T00:15:24.966Z,121.62
2017-11-03T00:17:52.523Z,125.30
2017-11-03T00:20:20.057Z,132.80
2017-11-03T00:22:47.618Z,138.82
2017-11-03T00:25:15.175Z,133.65
2017-11-03T00:27:43.102Z,121.60
2017-11-03T00:30:10.640Z,120.97
2017-11-03T00:32:38.171Z,127.95
2017-11-03T00:35:05.722Z,118.87
2017-11-03T00:37:33.244Z,127.75
2017-11-03T00:40:01.187Z,133.18
2017-11-03T00:42:28.711Z,134.35
2017-11-03T00:44:56.265Z,113.47
2017-11-03T00:47:24.224Z,131.52
2017-11-03T00:49:51.775Z,108.68
2017-11-03T00:52:19.308Z,117.87
2017-11-03T00:54:46.832Z,126.15
2017-11-03T00:57:14.383Z,112.68
2017-11-03T00:59:41.914Z,117.05
2017-11-03T01:02:09.449Z,108.85
2017-11-03T01:04:36.999Z,109.43
2017-11-03T01:07:04.536Z,131.60
2017-11-03T01:09:32.080Z,111.22
2017-11-03T01:11:59.612Z,108.65
2017-11-03T01:14:27.176Z,109.43
2017-11-03T01:16:54.725Z,107.37
2017-11-03T01:19:22.248Z,118.05
2017-11-03T01:21:49.800Z,121.05
2017-11-03T01:24:17.329Z,121.78
2017-11-03T01:26:44.880Z,114.53
2017-11-03T01:29:12.805Z,130.73
2017-11-03T01:31:40.344Z,122.85
2017-11-03T01:34:08.277Z,118.97
2017-11-03T01:36:35.844Z,133.02
2017-11-03T01:39:03.372Z,122.90
2017-11-03T01:41:30.909Z,108.37
2017-11-03T01:43:58.456Z,116.10
2017-11-03T01:46:25.987Z,116.57
2017-11-03T01:48:53.563Z,122.57
2017-11-03T01:51:21.104Z,124.30
2017-11-03T01:53:48.667Z,115.85
2017-11-03T01:56:16.203Z,141.93
2017-11-03T01:58:43.795Z,137.45
2017-11-03T02:01:11.312Z,126.75
2017-11-03T02:03:39.231Z,126.25
2017-11-03T02:06:06.782Z,131.43
2017-11-03T02:08:34.302Z,136.60
2017-11-03T02:11:01.844Z,132.32
2017-11-03T02:13:29.377Z,132.32
2017-11-03T02:15:56.929Z,138.50
2017-11-03T02:18:24.486Z,133.52
2017-11-03T02:20:52.044Z,127.20
2017-11-03T02:23:19.573Z,128.57
2017-11-03T02:25:47.101Z,137.23
2017-11-03T02:28:14.652Z,127.03
2017-11-03T02:30:42.176Z,141.18
2017-11-03T02:33:10.123Z,145.70
2017-11-03T02:35:37.650Z,127.18
2017-11-03T02:38:05.201Z,154.63
2017-11-03T02:40:33.133Z,141.15
2017-11-03T02:43:00.693Z,144.65
2017-11-03T02:45:28.220Z,142.35
2017-11-03T02:47:55.759Z,135.73
2017-11-03T02:50:23.315Z,143.27
2017-11-03T02:52:50.851Z,141.05
2017-11-03T02:55:18.393Z,148.23
2017-11-03T02:57:46.313Z,156.87
2017-11-03T03:00:13.853Z,148.93
2017-11-03T03:02:41.776Z,157.98
2017-11-03T03:05:09.336Z,156.68
2017-11-03T03:07:36.866Z,149.27
2017-11-03T03:10:04.396Z,141.75
2017-11-03T03:12:31.946Z,135.70
2017-11-03T03:14:59.476Z,143.95
2017-11-03T03:17:27.031Z,139.88
2017-11-03T03:19:54.562Z,135.00
2017-11-03T03:22:22.101Z,142.93
2017-11-03T03:24:50.034Z,128.93
2017-11-03T03:27:17.623Z,140.93
2017-11-03T03:29:45.163Z,134.70
2017-11-03T03:32:12.686Z,124.85
2017-11-03T03:34:40.234Z,134.18
2017-11-03T03:37:07.756Z,135.40
2017-11-03T03:39:35.301Z,134.73
2017-11-03T03:42:02.828Z,134.70
2017-11-03T03:44:30.366Z,149.12
2017-11-03T03:46:57.907Z,145.77
2017-11-03T03:49:25.494Z,154.80
2017-11-03T03:51:53.435Z,139.12
2017-11-03T03:54:20.962Z,133.68
2017-11-03T03:56:48.503Z,137.27
2017-11-03T03:59:16.042Z,140.32
2017-11-03T04:01:43.590Z,143.35
2017-11-03T04:04:11.142Z,134.02
2017-11-03T04:06:39.110Z,136.77
2017-11-03T04:09:06.656Z,143.02
2017-11-03T04:11:34.190Z,139.45
2017-11-03T04:14:01.744Z,132.12
2017-11-03T04:16:29.314Z,131.50
2017-11-03T04:18:56.857Z,129.02
2017-11-03T04:21:24.388Z,137.15
2017-11-03T04:23:51.978Z,136.25
2017-11-03T04:26:19.514Z,129.32
2017-11-03T04:28:47.048Z,128.90
2017-11-03T04:31:14.600Z,127.82
2017-11-03T04:33:42.134Z,116.35
2017-11-03T04:36:09.684Z,138.90
2017-11-03T04:38:37.615Z,123.80
2017-11-03T04:41:05.187Z,128.98
2017-11-03T04:43:32.714Z,132.60
2017-11-03T04:46:00.244Z,129.50
2017-11-03T04:48:27.785Z,135.68
2017-11-03T04:50:55.305Z,137.30
2017-11-03T04:53:23.248Z,128.30
2017-11-03T04:55:50.795Z,128.55
2017-11-03T04:58:18.333Z,145.07
2017-11-03T05:00:46.259Z,133.70
2017-11-03T05:03:13.865Z,141.15
2017-11-03T05:05:41.409Z,144.32
2017-11-03T05:08:08.952Z,118.13
2017-11-03T05:10:36.502Z,132.85
2017-11-03T05:13:04.429Z,131.87
2017-11-03T05:15:32.008Z,128.77
2017-11-03T05:17:59.579Z,121.22
2017-11-03T05:20:27.110Z,130.27
2017-11-03T05:22:54.648Z,132.35
2017-11-03T05:25:22.233Z,128.43
2017-11-03T05:27:49.761Z,131.55
2017-11-03T05:30:17.301Z,137.95
2017-11-03T05:32:44.857Z,130.12
2017-11-03T05:35:12.777Z,131.12
2017-11-03T05:37:40.380Z,123.25
2017-11-03T05:40:07.910Z,133.68
2017-11-03T05:42:35.469Z,134.90
2017-11-03T05:45:02.996Z,125.25
2017-11-03T05:47:30.567Z,131.07
2017-11-03T05:49:58.102Z,136.02
2017-11-03T05:52:25.651Z,135.48
2017-11-03T05:54:53.204Z,128.98
2017-11-03T05:57:21.131Z,128.50
2017-11-03T05:59:48.674Z,128.25
2017-11-03T06:02:16.192Z,122.75
2017-11-03T06:04:43.755Z,126.97
2017-11-03T06:07:11.290Z,115.32
2017-11-03T06:09:38.819Z,138.27
2017-11-03T06:12:06.383Z,143.50
2017-11-03T06:14:33.920Z,124.70
2017-11-03T06:17:01.471Z,131.68
2017-11-03T06:19:29.394Z,123.18
2017-11-03T06:21:56.929Z,113.30
2017-11-03T06:24:24.456Z,123.00
2017-11-03T06:26:52.018Z,118.10
2017-11-03T06:29:19.547Z,125.00
2017-11-03T06:31:47.078Z,115.85
2017-11-03T06:34:14.617Z,113.15
2017-11-03T06:36:42.141Z,120.82
2017-11-03T06:39:10.083Z,110.22
2017-11-03T06:41:37.604Z,114.05
2017-11-03T06:44:05.153Z,111.62
2017-11-03T06:46:32.669Z,113.43
2017-11-03T06:49:00.235Z,110.57
2017-11-03T06:51:27.768Z,132.10
2017-11-03T06:53:55.704Z,123.03
2017-11-03T06:56:23.242Z,131.75
2017-11-03T06:58:50.787Z,119.00
2017-11-03T07:01:18.338Z,118.65
2017-11-03T07:03:45.880Z,117.82
2017-11-03T07:06:13.422Z,125.55
2017-11-03T07:08:41.355Z,113.90
2017-11-03T07:11:08.902Z,97.55
2017-11-03T07:13:36.425Z,112.78
2017-11-03T07:16:04.349Z,118.87
2017-11-03T07:18:31.921Z,109.97
2017-11-03T07:20:59.446Z,100.70
2017-11-03T07:23:26.997Z,107.82
2017-11-03T07:25:54.520Z,103.87
2017-11-03T07:28:22.069Z,103.47
2017-11-03T07:30:50.004Z,102.40
2017-11-03T07:33:17.565Z,111.82
2017-11-03T07:35:45.558Z,103.93
2017-11-03T07:38:13.082Z,95.68
2017-11-03T07:40:40.677Z,94.30
2017-11-03T07:43:08.209Z,106.97
2017-11-03T07:45:35.761Z,102.82
2017-11-03T07:48:03.277Z,96.45
2017-11-03T07:50:30.819Z,99.97
2017-11-03T07:52:58.338Z,97.43
2017-11-03T07:55:25.896Z,83.53
2017-11-03T07:57:53.438Z,90.97
2017-11-03T08:00:20.962Z,86.35
2017-11-03T08:02:48.510Z,93.57
2017-11-03T08:05:16.044Z,90.25
